Esther, Canada
Current Conditions -  °F | °C
As of 8:00 AM on Friday 31 Oct 2014 (Local Time) from CYKY Reporting Station
Broken Clouds Broken Clouds  
Wind Chill: 25°   Ceiling: 26000
Heat Index: 36°   Visibility: 15mi
Dew Point: 32°   Wind: 21mph
Humidity: 87%   Direction: 160°SSE
Pressure: 29.81"   Gusts: 29mph
Location:  51.68°N, 110.26°W
Report Text: CYKY 311400Z 16018G25KT 15SM FEW020 SCT070 BKN260 02/M00 A2981 RMK SC2AC1CI4 SLP122
Loading
Personal Weather Stations






























Interactive Weather Map
Tropical Storm Tracking
New forecast layout! Learn more

10-Day Weather Forecast

Advertisements
Track Severe Weather on mobile